Time;durP1;ratioP1;P1;durP2;ratioP2;P2;SDS_P1;SDS_P2;PMS_P1;PMS_P2;Temp;Humidity;BMP_temperature;BMP_pressure;BME280_temperature;BME280_humidity;BME280_pressure;Samples;Min_cycle;Max_cycle;Signal;HPM_P1;HPM_P2
2024/01/06 00:02:10;;;;;;;1.63;0.90;;;4.80;99.90;;;;;;5047931;27;20593;-71
2024/01/06 00:04:37;;;;;;;2.60;1.50;;;4.80;99.90;;;;;;5047696;27;20270;-71
2024/01/06 00:07:04;;;;;;;1.88;1.27;;;4.90;99.90;;;;;;5041499;27;20235;-72
2024/01/06 00:09:31;;;;;;;1.75;1.30;;;4.80;99.90;;;;;;5040768;27;20204;-72
2024/01/06 00:11:57;;;;;;;2.50;2.30;;;4.80;99.90;;;;;;5039981;27;20561;-72
2024/01/06 00:14:24;;;;;;;1.30;1.20;;;4.90;99.90;;;;;;5041460;27;20601;-72
2024/01/06 00:16:51;;;;;;;2.60;1.20;;;4.90;99.90;;;;;;5039848;27;20208;-71
2024/01/06 00:19:19;;;;;;;1.15;1.02;;;4.90;99.90;;;;;;5039108;27;20204;-72
2024/01/06 00:21:46;;;;;;;1.35;1.17;;;4.90;99.90;;;;;;5037764;27;20204;-72
2024/01/06 00:24:12;;;;;;;1.00;1.00;;;4.90;99.90;;;;;;5025688;27;20208;-72
2024/01/06 00:26:39;;;;;;;1.35;1.15;;;4.90;99.90;;;;;;5026523;27;20277;-72
2024/01/06 00:29:06;;;;;;;1.10;1.00;;;4.90;99.90;;;;;;5041961;27;20228;-71
2024/01/06 00:31:33;;;;;;;3.05;1.20;;;4.90;99.90;;;;;;5046158;28;20577;-72
2024/01/06 00:34:00;;;;;;;1.50;1.15;;;4.90;99.90;;;;;;5043180;28;20220;-72
2024/01/06 00:36:28;;;;;;;1.00;1.00;;;4.90;99.90;;;;;;5039923;28;20517;-72
2024/01/06 00:38:55;;;;;;;1.60;1.50;;;4.90;99.90;;;;;;5045322;28;20235;-72
2024/01/06 00:41:22;;;;;;;8.98;2.03;;;4.90;99.90;;;;;;5053812;27;20602;-71
2024/01/06 00:43:48;;;;;;;1.30;1.13;;;4.90;99.90;;;;;;5044233;28;20662;-71
2024/01/06 00:46:15;;;;;;;1.10;1.10;;;4.90;99.90;;;;;;5054541;27;20577;-71
2024/01/06 00:48:42;;;;;;;1.35;0.70;;;4.90;99.90;;;;;;5045500;27;20215;-72
2024/01/06 00:51:09;;;;;;;3.10;0.85;;;4.90;99.90;;;;;;5052025;27;20214;-71
2024/01/06 00:53:37;;;;;;;0.70;0.70;;;4.80;99.90;;;;;;5050978;27;20216;-71
2024/01/06 00:56:04;;;;;;;1.42;1.13;;;4.90;99.90;;;;;;5042865;27;20649;-71
2024/01/06 00:58:31;;;;;;;1.15;1.05;;;4.80;99.90;;;;;;5050933;27;20201;-72
2024/01/06 01:00:58;;;;;;;1.40;1.02;;;4.90;99.90;;;;;;5052624;27;20204;-72
2024/01/06 01:03:25;;;;;;;0.50;0.50;;;4.90;99.90;;;;;;5052057;27;20284;-72
2024/01/06 01:05:53;;;;;;;0.93;0.73;;;4.90;99.90;;;;;;5054300;27;20331;-72
2024/01/06 01:08:21;;;;;;;1.10;1.00;;;4.90;99.90;;;;;;5050516;27;20203;-72
2024/01/06 01:10:49;;;;;;;0.75;0.45;;;4.80;99.90;;;;;;5051012;27;20204;-72
2024/01/06 01:13:16;;;;;;;0.88;0.75;;;4.80;99.90;;;;;;5050336;27;20672;-72
2024/01/06 01:15:43;;;;;;;0.80;0.80;;;4.80;99.90;;;;;;5048915;28;20253;-72
2024/01/06 01:18:10;;;;;;;1.88;1.20;;;4.80;99.90;;;;;;5049134;27;20203;-72
2024/01/06 01:20:37;;;;;;;2.03;1.38;;;4.80;99.90;;;;;;5046714;27;20563;-71
2024/01/06 01:23:04;;;;;;;0.95;0.95;;;4.70;99.90;;;;;;5047479;27;20729;-71
2024/01/06 01:25:31;;;;;;;0.82;0.77;;;4.80;99.90;;;;;;5046007;27;20222;-71
2024/01/06 01:27:59;;;;;;;3.22;1.38;;;4.70;99.90;;;;;;5037374;27;20210;-72
2024/01/06 01:30:26;;;;;;;0.88;0.88;;;4.80;99.90;;;;;;5054991;27;20201;-71
2024/01/06 01:32:52;;;;;;;1.08;0.65;;;4.70;99.90;;;;;;5059815;27;20199;-72
2024/01/06 01:35:19;;;;;;;1.30;1.20;;;4.80;99.90;;;;;;5051945;27;20219;-72
2024/01/06 01:37:46;;;;;;;0.75;0.75;;;4.70;99.90;;;;;;5061983;27;20273;-72
2024/01/06 01:40:13;;;;;;;1.05;0.88;;;4.80;99.90;;;;;;5052175;27;20290;-72
2024/01/06 01:42:41;;;;;;;0.98;0.98;;;4.80;99.90;;;;;;5049085;28;20214;-72
2024/01/06 01:45:10;;;;;;;0.82;0.77;;;4.80;99.90;;;;;;5039769;28;20211;-71
2024/01/06 01:47:39;;;;;;;2.65;1.08;;;4.80;99.90;;;;;;5046691;27;20212;-73
2024/01/06 01:50:06;;;;;;;1.48;1.10;;;4.70;99.90;;;;;;5044992;27;20678;-72
2024/01/06 01:52:34;;;;;;;1.75;1.08;;;4.70;99.90;;;;;;5057197;27;20504;-72
2024/01/06 01:55:00;;;;;;;1.05;0.85;;;4.70;99.90;;;;;;5036845;28;20229;-72
2024/01/06 01:57:28;;;;;;;2.47;1.20;;;4.70;99.90;;;;;;5048448;27;20203;-72
2024/01/06 01:59:56;;;;;;;0.82;0.70;;;4.70;99.90;;;;;;5056025;27;20552;-71
2024/01/06 02:02:24;;;;;;;1.75;0.95;;;4.70;99.90;;;;;;5050986;27;20578;-72
2024/01/06 02:04:51;;;;;;;0.90;0.90;;;4.60;99.90;;;;;;5054474;27;20200;-72
2024/01/06 02:07:18;;;;;;;1.88;1.40;;;4.60;99.90;;;;;;5052045;27;20202;-72
2024/01/06 02:09:45;;;;;;;1.27;1.10;;;4.70;99.90;;;;;;5045388;27;20232;-72
2024/01/06 02:12:12;;;;;;;2.67;1.10;;;4.70;99.90;;;;;;5048434;27;20763;-71
2024/01/06 02:14:39;;;;;;;1.02;0.63;;;4.70;99.90;;;;;;5044525;27;20676;-72
2024/01/06 02:17:06;;;;;;;1.27;1.23;;;4.60;99.90;;;;;;5050331;27;20291;-72
2024/01/06 02:19:34;;;;;;;0.90;0.90;;;4.60;99.90;;;;;;5047947;27;20203;-72
2024/01/06 02:22:02;;;;;;;1.23;1.13;;;4.70;99.90;;;;;;5047619;27;20231;-72
2024/01/06 02:24:30;;;;;;;1.35;1.27;;;4.70;99.90;;;;;;5046384;27;20207;-72
2024/01/06 02:26:57;;;;;;;0.95;0.73;;;4.70;99.90;;;;;;5045851;27;20633;-72
2024/01/06 02:29:25;;;;;;;0.77;0.77;;;4.70;99.90;;;;;;5040512;28;20202;-72
2024/01/06 02:31:53;;;;;;;1.50;1.40;;;4.80;99.90;;;;;;5064280;27;20561;-71
2024/01/06 02:34:21;;;;;;;0.98;0.70;;;4.70;99.90;;;;;;5062958;27;20227;-72
2024/01/06 02:36:49;;;;;;;3.17;1.48;;;4.70;99.90;;;;;;5052669;27;20226;-72
2024/01/06 02:39:17;;;;;;;0.80;0.55;;;4.80;99.90;;;;;;5060749;27;20252;-71
2024/01/06 02:41:45;;;;;;;0.88;0.80;;;4.80;99.90;;;;;;5059207;27;20246;-72
2024/01/06 02:44:14;;;;;;;1.33;1.17;;;4.80;99.90;;;;;;5049379;27;20253;-72
2024/01/06 02:46:42;;;;;;;1.15;1.05;;;4.90;99.90;;;;;;5048485;27;20230;-71
2024/01/06 02:49:10;;;;;;;0.73;0.73;;;4.80;99.90;;;;;;5052009;27;20216;-72
2024/01/06 02:51:39;;;;;;;1.73;1.23;;;4.80;99.90;;;;;;5056224;27;20287;-72
2024/01/06 02:54:06;;;;;;;1.88;0.75;;;4.70;99.90;;;;;;5054434;27;20211;-72
2024/01/06 02:56:35;;;;;;;1.52;1.42;;;4.70;99.90;;;;;;5043245;27;20553;-72
2024/01/06 02:59:03;;;;;;;1.58;1.00;;;4.70;99.90;;;;;;5046892;27;20214;-72
2024/01/06 03:01:33;;;;;;;1.00;0.93;;;4.70;99.90;;;;;;5049479;27;20618;-72
2024/01/06 03:04:00;;;;;;;2.08;1.75;;;4.70;99.90;;;;;;5046083;27;20686;-72
2024/01/06 03:06:29;;;;;;;1.77;0.90;;;4.70;99.90;;;;;;5043442;27;20268;-72
2024/01/06 03:08:55;;;;;;;0.98;0.98;;;4.70;99.90;;;;;;5048125;27;20287;-72
2024/01/06 03:11:23;;;;;;;1.80;1.20;;;4.70;99.90;;;;;;5041911;27;20669;-72
2024/01/06 03:13:51;;;;;;;3.38;1.42;;;4.70;99.90;;;;;;5043617;27;20639;-72
2024/01/06 03:16:19;;;;;;;1.17;1.17;;;4.70;99.90;;;;;;5042294;27;20579;-72
2024/01/06 03:18:47;;;;;;;1.65;1.55;;;4.70;99.90;;;;;;5044382;27;20239;-71
2024/01/06 03:21:20;;;;;;;1.73;1.27;;;4.70;99.90;;;;;;5039861;27;20579;-72
2024/01/06 03:23:49;;;;;;;1.70;1.60;;;4.60;99.90;;;;;;5036775;28;20291;-72
2024/01/06 03:26:17;;;;;;;1.88;1.45;;;4.60;99.90;;;;;;5036586;28;20294;-72
2024/01/06 03:28:44;;;;;;;2.22;1.83;;;4.50;99.90;;;;;;5040092;27;20510;-72
2024/01/06 03:31:13;;;;;;;3.45;1.35;;;4.50;99.90;;;;;;5050821;28;20207;-72
2024/01/06 03:33:41;;;;;;;2.38;1.05;;;4.50;99.90;;;;;;5047874;28;20253;-71
2024/01/06 03:36:09;;;;;;;1.50;1.40;;;4.50;99.90;;;;;;5053607;27;20203;-71
2024/01/06 03:38:36;;;;;;;1.52;1.40;;;4.60;99.90;;;;;;5048089;28;20203;-72
2024/01/06 03:41:04;;;;;;;1.30;1.20;;;4.60;99.90;;;;;;5065003;27;20739;-71
2024/01/06 03:43:32;;;;;;;1.83;0.98;;;4.50;99.90;;;;;;5075045;27;20668;-72
2024/01/06 03:46:00;;;;;;;1.75;1.25;;;4.40;99.90;;;;;;5084730;27;20234;-72
2024/01/06 03:48:30;;;;;;;3.55;1.42;;;4.40;99.90;;;;;;5083891;27;20675;-72
2024/01/06 03:50:56;;;;;;;1.20;1.10;;;4.40;99.90;;;;;;5077395;27;20204;-72
2024/01/06 03:53:23;;;;;;;1.80;1.23;;;4.40;99.90;;;;;;5075694;27;20298;-72
2024/01/06 03:55:50;;;;;;;1.13;1.05;;;4.40;99.90;;;;;;5062830;27;20680;-71
2024/01/06 03:58:17;;;;;;;1.10;1.00;;;4.40;99.90;;;;;;5056442;27;20614;-72
2024/01/06 04:00:43;;;;;;;1.10;1.00;;;4.40;99.90;;;;;;5058865;27;20234;-72
2024/01/06 04:03:10;;;;;;;1.45;1.35;;;4.40;99.90;;;;;;5051736;28;20207;-71
2024/01/06 04:05:38;;;;;;;1.20;1.10;;;4.40;99.90;;;;;;5054837;28;20199;-72
2024/01/06 04:08:05;;;;;;;3.00;1.42;;;4.40;99.90;;;;;;5044160;28;20215;-72
2024/01/06 04:10:32;;;;;;;1.45;1.13;;;4.50;99.90;;;;;;5050264;27;20202;-71
2024/01/06 04:12:59;;;;;;;2.10;1.20;;;4.40;99.90;;;;;;5052108;28;20211;-71
2024/01/06 04:15:26;;;;;;;1.60;1.50;;;4.40;99.90;;;;;;5050560;27;20226;-72
2024/01/06 04:17:53;;;;;;;3.10;1.58;;;4.40;99.90;;;;;;5049675;28;20204;-71
2024/01/06 04:20:20;;;;;;;1.23;1.13;;;4.40;99.90;;;;;;5047553;27;20212;-71
2024/01/06 04:22:48;;;;;;;1.10;1.00;;;4.40;99.90;;;;;;5046886;27;20294;-72
2024/01/06 04:25:14;;;;;;;1.85;1.70;;;4.40;99.90;;;;;;5038092;27;20204;-72
2024/01/06 04:27:41;;;;;;;1.30;1.20;;;4.40;99.90;;;;;;5036927;27;20216;-72
2024/01/06 04:30:09;;;;;;;1.45;1.10;;;4.40;99.90;;;;;;5048025;27;20206;-72
2024/01/06 04:32:36;;;;;;;2.05;1.70;;;4.40;99.90;;;;;;5039289;27;20287;-72
2024/01/06 04:35:02;;;;;;;2.33;1.05;;;4.30;99.90;;;;;;5044522;27;20232;-72
2024/01/06 04:37:29;;;;;;;1.63;1.52;;;4.30;99.90;;;;;;5039941;28;20821;-72
2024/01/06 04:39:58;;;;;;;1.85;1.35;;;4.30;99.90;;;;;;5037879;27;20639;-72
2024/01/06 04:42:25;;;;;;;1.13;1.02;;;4.20;99.90;;;;;;5044314;27;20208;-72
2024/01/06 04:44:52;;;;;;;1.45;1.35;;;4.30;99.90;;;;;;5039827;27;20293;-72
2024/01/06 04:47:18;;;;;;;1.05;0.90;;;4.20;99.90;;;;;;5047122;27;20199;-72
2024/01/06 04:49:45;;;;;;;1.40;1.30;;;4.30;99.90;;;;;;5047733;27;20587;-71
2024/01/06 04:52:12;;;;;;;3.00;1.20;;;4.30;99.90;;;;;;5036881;27;20201;-72
2024/01/06 04:54:39;;;;;;;1.42;1.33;;;4.30;99.90;;;;;;5056046;27;20310;-72
2024/01/06 04:57:07;;;;;;;6.57;1.27;;;4.30;99.90;;;;;;5053593;27;20214;-71
2024/01/06 04:59:34;;;;;;;0.70;0.70;;;4.30;99.90;;;;;;5060480;27;20210;-72
2024/01/06 05:02:01;;;;;;;1.20;0.95;;;4.30;99.90;;;;;;5054217;27;20203;-72
2024/01/06 05:04:30;;;;;;;0.82;0.82;;;4.30;99.90;;;;;;5056151;27;20201;-72
2024/01/06 05:06:57;;;;;;;2.47;1.33;;;4.30;99.90;;;;;;5061060;27;20218;-72
2024/01/06 05:09:24;;;;;;;0.80;0.80;;;4.30;99.90;;;;;;5054330;27;20204;-72
2024/01/06 05:11:50;;;;;;;1.13;0.98;;;4.30;99.90;;;;;;5042112;27;20205;-72
2024/01/06 05:14:19;;;;;;;0.70;0.70;;;4.30;99.90;;;;;;5047508;27;20235;-72
2024/01/06 05:16:45;;;;;;;4.55;1.45;;;4.30;99.90;;;;;;5058051;27;20222;-72
2024/01/06 05:19:19;;;;;;;4.78;1.27;;;4.30;99.90;;;;;;5056107;27;20214;-72
2024/01/06 05:21:46;;;;;;;1.05;0.80;;;4.30;99.90;;;;;;5048285;27;20220;-72
2024/01/06 05:24:12;;;;;;;1.20;1.10;;;4.40;99.90;;;;;;5053016;27;20699;-72
2024/01/06 05:26:39;;;;;;;1.17;1.15;;;4.30;99.90;;;;;;5040427;28;20209;-72
2024/01/06 05:29:06;;;;;;;1.42;1.05;;;4.30;99.90;;;;;;5047402;27;20206;-72
2024/01/06 05:31:34;;;;;;;1.20;0.82;;;4.40;99.90;;;;;;5045013;27;20210;-72
2024/01/06 05:34:01;;;;;;;0.77;0.77;;;4.30;99.90;;;;;;5053464;27;20215;-72
2024/01/06 05:36:28;;;;;;;4.07;1.40;;;4.30;99.90;;;;;;5045815;27;20661;-72
2024/01/06 05:38:54;;;;;;;1.58;0.90;;;4.40;99.90;;;;;;5046583;27;20249;-71
2024/01/06 05:41:21;;;;;;;0.90;0.50;;;4.30;99.90;;;;;;5046467;27;20614;-72
2024/01/06 05:43:51;;;;;;;4.30;0.90;;;4.30;99.90;;;;;;5044451;27;20587;-72
2024/01/06 05:46:22;;;;;;;0.70;0.52;;;4.40;99.90;;;;;;5043410;27;20196;-72
2024/01/06 05:48:50;;;;;;;1.42;1.20;;;4.50;99.90;;;;;;5030808;27;20412;-72
2024/01/06 05:51:17;;;;;;;1.23;1.02;;;4.40;99.90;;;;;;5038147;27;20217;-72
2024/01/06 05:53:44;;;;;;;0.90;0.80;;;4.50;99.90;;;;;;5050307;28;20207;-72
2024/01/06 05:56:11;;;;;;;1.70;1.10;;;4.50;99.90;;;;;;5054200;27;20251;-72
2024/01/06 05:58:38;;;;;;;1.63;0.95;;;4.50;99.90;;;;;;5060692;28;20306;-72
2024/01/06 06:01:04;;;;;;;1.20;1.10;;;4.40;99.90;;;;;;5060857;27;20207;-72
2024/01/06 06:03:31;;;;;;;0.73;0.73;;;4.50;99.90;;;;;;5054017;28;20219;-72
2024/01/06 06:06:00;;;;;;;0.95;0.77;;;4.60;99.90;;;;;;5054032;27;20272;-72
2024/01/06 06:08:26;;;;;;;1.05;0.88;;;4.60;99.90;;;;;;5049403;27;20204;-72
2024/01/06 06:11:01;;;;;;;1.25;0.98;;;4.50;99.90;;;;;;5032792;28;20211;-72
2024/01/06 06:13:28;;;;;;;1.40;1.30;;;4.50;99.90;;;;;;5053871;27;20210;-72
2024/01/06 06:15:55;;;;;;;0.65;0.60;;;4.50;99.90;;;;;;5049926;27;20736;-72
2024/01/06 06:18:22;;;;;;;1.90;1.20;;;4.50;99.90;;;;;;5052838;27;20204;-72
2024/01/06 06:20:49;;;;;;;1.02;1.02;;;4.60;99.90;;;;;;5047647;28;20207;-72
2024/01/06 06:23:17;;;;;;;1.42;0.70;;;4.60;99.90;;;;;;5054252;27;20573;-72
2024/01/06 06:25:44;;;;;;;1.00;0.82;;;4.60;99.90;;;;;;5052123;27;20207;-72
2024/01/06 06:28:11;;;;;;;2.47;1.40;;;4.60;99.90;;;;;;5048385;27;20214;-72
2024/01/06 06:30:37;;;;;;;1.13;1.02;;;4.60;99.90;;;;;;5044867;27;20709;-72
2024/01/06 06:33:05;;;;;;;0.93;0.93;;;4.60;99.90;;;;;;5048775;27;20590;-72
2024/01/06 06:35:31;;;;;;;4.15;1.42;;;4.60;99.90;;;;;;5053761;27;20230;-72
2024/01/06 06:37:58;;;;;;;0.80;0.57;;;4.60;99.90;;;;;;5063794;27;20199;-72
2024/01/06 06:40:27;;;;;;;2.95;1.48;;;4.60;99.90;;;;;;5035478;27;20539;-72
2024/01/06 06:42:54;;;;;;;1.75;1.40;;;4.70;99.90;;;;;;5040840;27;20662;-72
2024/01/06 06:45:22;;;;;;;1.90;1.50;;;4.60;99.90;;;;;;5059187;27;20639;-72
2024/01/06 06:47:49;;;;;;;1.40;1.30;;;4.70;99.90;;;;;;5035391;27;20274;-72
2024/01/06 06:50:16;;;;;;;6.32;1.10;;;4.70;99.90;;;;;;5033108;27;20677;-72
2024/01/06 06:52:43;;;;;;;1.65;1.55;;;4.60;99.90;;;;;;5047833;27;20214;-72
2024/01/06 06:55:10;;;;;;;4.18;1.90;;;4.60;99.90;;;;;;5042069;28;20224;-72
2024/01/06 06:57:38;;;;;;;1.60;1.50;;;4.60;99.90;;;;;;5060728;27;20211;-72
2024/01/06 07:00:07;;;;;;;1.42;1.27;;;4.60;99.90;;;;;;5046682;27;20228;-72
2024/01/06 07:02:34;;;;;;;1.67;1.58;;;4.70;99.90;;;;;;5041165;28;20946;-74
2024/01/06 07:05:01;;;;;;;1.25;1.15;;;4.60;99.90;;;;;;5042433;28;20615;-71
2024/01/06 07:07:28;;;;;;;1.38;1.27;;;4.60;99.90;;;;;;5044445;28;20307;-72
2024/01/06 07:09:55;;;;;;;2.10;1.90;;;4.60;99.90;;;;;;5035511;28;20204;-72
2024/01/06 07:12:21;;;;;;;1.33;1.20;;;4.50;99.90;;;;;;5037886;28;20208;-72
2024/01/06 07:14:49;;;;;;;2.60;1.60;;;4.60;99.90;;;;;;5037702;28;20214;-72
2024/01/06 07:17:16;;;;;;;1.42;1.30;;;4.60;99.90;;;;;;5032562;28;20215;-72
2024/01/06 07:19:44;;;;;;;2.45;1.40;;;4.60;99.90;;;;;;5034962;28;20669;-72
2024/01/06 07:22:11;;;;;;;1.40;1.30;;;4.70;99.90;;;;;;5041184;28;20593;-72
2024/01/06 07:24:37;;;;;;;1.00;1.00;;;4.70;99.90;;;;;;5040890;28;20594;-72
2024/01/06 07:27:05;;;;;;;1.42;1.33;;;4.60;99.90;;;;;;5046880;28;20205;-72
2024/01/06 07:29:30;;;;;;;1.50;1.17;;;4.60;99.90;;;;;;5045544;28;20677;-71
2024/01/06 07:31:58;;;;;;;0.90;0.90;;;4.70;99.90;;;;;;5042269;27;20208;-72
2024/01/06 07:34:25;;;;;;;0.70;0.70;;;4.70;99.90;;;;;;5048998;27;20207;-71
2024/01/06 07:36:52;;;;;;;1.15;1.05;;;4.70;99.90;;;;;;5036487;27;20606;-71
2024/01/06 07:39:19;;;;;;;1.13;0.80;;;4.60;99.90;;;;;;5043405;27;20209;-71
2024/01/06 07:41:46;;;;;;;0.98;0.85;;;4.60;99.90;;;;;;5038342;27;20212;-73
2024/01/06 07:44:13;;;;;;;2.15;1.00;;;4.60;99.90;;;;;;5039395;27;20211;-72
2024/01/06 07:46:40;;;;;;;1.38;1.05;;;4.60;99.90;;;;;;5040539;27;20227;-72
2024/01/06 07:49:08;;;;;;;0.85;0.75;;;4.50;99.90;;;;;;5038499;27;20228;-72
2024/01/06 07:51:35;;;;;;;2.10;1.40;;;4.50;99.90;;;;;;5035531;27;20565;-72
2024/01/06 07:54:02;;;;;;;0.85;0.85;;;4.50;99.90;;;;;;5026198;27;20204;-72
2024/01/06 07:56:28;;;;;;;1.42;1.33;;;4.50;99.90;;;;;;5040388;28;20382;-72
2024/01/06 07:58:55;;;;;;;1.33;1.23;;;4.50;99.90;;;;;;5033670;28;20271;-72
2024/01/06 08:01:22;;;;;;;1.00;1.00;;;4.50;99.90;;;;;;5037982;28;20208;-75
2024/01/06 08:03:50;;;;;;;1.08;0.90;;;4.60;99.90;;;;;;5045531;27;20613;-71
2024/01/06 08:06:18;;;;;;;1.48;0.93;;;4.60;99.90;;;;;;5033608;28;20204;-71
2024/01/06 08:08:45;;;;;;;2.45;1.30;;;4.60;99.90;;;;;;5033651;28;20206;-71
2024/01/06 08:11:12;;;;;;;1.92;1.25;;;4.70;99.90;;;;;;5038182;28;20228;-72
2024/01/06 08:13:39;;;;;;;1.77;1.45;;;4.70;99.90;;;;;;5043825;28;20207;-72
2024/01/06 08:16:06;;;;;;;1.00;0.90;;;4.70;99.90;;;;;;5039867;28;20238;-72
2024/01/06 08:18:33;;;;;;;4.55;1.20;;;4.60;99.90;;;;;;5041463;28;20204;-72
2024/01/06 08:21:00;;;;;;;1.00;1.00;;;4.70;99.90;;;;;;5044910;27;20279;-72
2024/01/06 08:23:28;;;;;;;0.90;0.90;;;4.70;99.90;;;;;;5051871;28;20216;-72
2024/01/06 08:25:55;;;;;;;0.93;0.90;;;4.80;99.90;;;;;;5049600;28;20210;-72
2024/01/06 08:28:23;;;;;;;1.20;1.10;;;4.70;99.90;;;;;;5048532;27;20564;-72
2024/01/06 08:30:50;;;;;;;1.58;1.15;;;4.90;99.90;;;;;;5050555;27;20680;-71
2024/01/06 08:33:17;;;;;;;1.13;0.80;;;4.90;99.90;;;;;;5050164;27;20210;-70
2024/01/06 08:35:44;;;;;;;1.00;1.00;;;4.80;99.90;;;;;;5045483;27;20319;-70
2024/01/06 08:38:11;;;;;;;1.48;1.20;;;4.90;99.90;;;;;;5030962;27;20211;-71
2024/01/06 08:40:39;;;;;;;6.20;1.70;;;5.00;99.90;;;;;;5032789;27;20695;-72
2024/01/06 08:43:05;;;;;;;1.60;1.50;;;5.00;99.90;;;;;;5033530;27;20200;-71
2024/01/06 08:45:32;;;;;;;3.78;2.45;;;4.90;99.90;;;;;;5032674;27;20283;-71
2024/01/06 08:47:59;;;;;;;1.15;1.02;;;5.00;99.90;;;;;;5029185;27;20211;-71
2024/01/06 08:50:26;;;;;;;0.80;0.80;;;5.00;99.90;;;;;;5033480;27;20206;-71
2024/01/06 08:52:53;;;;;;;1.33;1.27;;;5.00;99.90;;;;;;5039623;28;20207;-71
2024/01/06 08:55:19;;;;;;;0.80;0.80;;;5.10;99.90;;;;;;5033158;27;20738;-71
2024/01/06 08:57:48;;;;;;;1.95;1.10;;;5.10;99.90;;;;;;5037286;28;20212;-73
2024/01/06 09:00:15;;;;;;;2.65;1.13;;;5.10;99.90;;;;;;5044462;28;20514;-74
2024/01/06 09:02:42;;;;;;;3.40;1.63;;;5.10;99.90;;;;;;5035690;28;20261;-74
2024/01/06 09:05:09;;;;;;;0.85;0.85;;;5.20;99.90;;;;;;5040107;28;20286;-73
2024/01/06 09:07:36;;;;;;;1.17;1.10;;;5.30;99.90;;;;;;5057349;27;20207;-72
2024/01/06 09:10:03;;;;;;;1.63;1.27;;;5.30;99.90;;;;;;5047753;28;20205;-72
2024/01/06 09:12:30;;;;;;;1.20;1.05;;;5.30;99.90;;;;;;5053919;27;20228;-73
2024/01/06 09:14:58;;;;;;;0.82;0.82;;;5.30;99.90;;;;;;5055021;27;20652;-74
2024/01/06 09:17:25;;;;;;;1.23;1.20;;;5.30;99.90;;;;;;5049911;27;20227;-72
2024/01/06 09:19:53;;;;;;;1.45;1.23;;;5.30;99.90;;;;;;5041365;27;20215;-72
2024/01/06 09:22:20;;;;;;;1.40;0.70;;;5.30;99.90;;;;;;5044508;27;20667;-73
2024/01/06 09:24:47;;;;;;;1.45;1.35;;;5.30;99.90;;;;;;5044938;27;20204;-73
2024/01/06 09:27:14;;;;;;;1.77;1.20;;;5.30;99.90;;;;;;5042452;28;20283;-73
2024/01/06 09:29:41;;;;;;;1.30;0.90;;;5.30;99.90;;;;;;5050924;27;20212;-73
2024/01/06 09:32:09;;;;;;;0.77;0.57;;;5.30;99.90;;;;;;5051206;27;20291;-73
2024/01/06 09:34:37;;;;;;;1.02;1.02;;;5.40;99.90;;;;;;5038848;27;20209;-73
2024/01/06 09:37:04;;;;;;;0.65;0.50;;;5.40;99.90;;;;;;5051498;27;20296;-73
2024/01/06 09:39:31;;;;;;;0.88;0.88;;;5.40;99.90;;;;;;5043953;27;20208;-74
2024/01/06 09:41:58;;;;;;;1.05;0.80;;;5.40;99.90;;;;;;5047431;27;20218;-73
2024/01/06 09:44:25;;;;;;;1.98;1.02;;;5.40;99.90;;;;;;5038608;27;20204;-73
2024/01/06 09:46:52;;;;;;;0.68;0.68;;;5.40;99.90;;;;;;5035339;27;20215;-73
2024/01/06 09:49:24;;;;;;;1.13;1.02;;;5.50;99.90;;;;;;5035968;27;20696;-73
2024/01/06 09:51:54;;;;;;;0.55;0.50;;;5.50;99.90;;;;;;5035951;27;20207;-73
2024/01/06 09:54:25;;;;;;;0.60;0.60;;;5.50;99.90;;;;;;5040774;28;20629;-73
2024/01/06 09:56:52;;;;;;;0.60;0.60;;;5.50;99.90;;;;;;5038434;28;20224;-74
2024/01/06 09:59:21;;;;;;;0.65;0.65;;;5.60;99.90;;;;;;5039385;28;20204;-74
2024/01/06 10:01:52;;;;;;;0.75;0.73;;;5.60;99.90;;;;;;5036280;28;20223;-74
2024/01/06 10:04:23;;;;;;;2.17;1.35;;;5.70;99.90;;;;;;5036908;28;20620;-74
2024/01/06 10:06:50;;;;;;;0.90;0.90;;;5.60;99.90;;;;;;5045682;28;20192;-74
2024/01/06 10:09:17;;;;;;;1.20;1.10;;;5.60;99.90;;;;;;5039694;28;20208;-73
2024/01/06 10:11:45;;;;;;;1.75;1.00;;;5.50;99.90;;;;;;5043358;28;20203;-73
2024/01/06 10:14:13;;;;;;;1.25;1.15;;;5.60;99.90;;;;;;5038626;28;20555;-72
2024/01/06 10:16:40;;;;;;;1.00;0.70;;;5.60;99.90;;;;;;5048334;27;20579;-72
2024/01/06 10:19:06;;;;;;;1.60;0.80;;;5.60;99.90;;;;;;5048568;27;20205;-73
2024/01/06 10:21:35;;;;;;;1.55;0.80;;;5.60;99.90;;;;;;5031127;28;21166;-73
2024/01/06 10:24:01;;;;;;;1.05;1.05;;;5.60;99.90;;;;;;5045345;28;20196;-73
2024/01/06 10:26:31;;;;;;;0.52;0.52;;;5.60;99.90;;;;;;5047900;27;20715;-73
2024/01/06 10:28:57;;;;;;;0.88;0.88;;;5.70;99.90;;;;;;5044413;27;20201;-73
2024/01/06 10:31:26;;;;;;;0.70;0.70;;;5.70;99.90;;;;;;5040755;27;20212;-72
2024/01/06 10:33:53;;;;;;;1.23;1.23;;;5.70;99.90;;;;;;5051311;27;20212;-72
2024/01/06 10:36:20;;;;;;;0.75;0.75;;;5.60;99.90;;;;;;5041910;27;20236;-72
2024/01/06 10:38:49;;;;;;;1.15;0.73;;;5.60;99.90;;;;;;5041396;27;20665;-73
2024/01/06 10:41:17;;;;;;;1.15;1.08;;;5.60;99.90;;;;;;5027865;28;20214;-72
2024/01/06 10:43:46;;;;;;;1.00;0.90;;;5.50;99.90;;;;;;5034110;27;20209;-72
2024/01/06 10:46:15;;;;;;;0.95;0.85;;;5.50;99.90;;;;;;5042377;27;20200;-72
2024/01/06 10:48:44;;;;;;;0.98;0.98;;;5.60;99.90;;;;;;5036205;27;20212;-72
2024/01/06 10:51:11;;;;;;;0.70;0.50;;;5.60;99.90;;;;;;5041423;27;20212;-72
2024/01/06 10:53:39;;;;;;;0.65;0.60;;;5.60;99.90;;;;;;5036222;27;20219;-73
2024/01/06 10:56:25;;;;;;;0.80;0.57;;;5.70;99.90;;;;;;5045364;27;20224;-72
2024/01/06 10:58:54;;;;;;;1.30;0.68;;;5.40;99.90;;;;;;5037349;28;20570;-71
2024/01/06 11:01:24;;;;;;;1.13;0.60;;;5.40;99.90;;;;;;5037891;28;20204;-72
2024/01/06 11:03:51;;;;;;;1.08;0.75;;;5.40;99.90;;;;;;5039033;27;20239;-72
2024/01/06 11:06:19;;;;;;;1.13;0.60;;;5.40;99.90;;;;;;5039301;28;20199;-74
2024/01/06 11:08:52;;;;;;;0.52;0.52;;;5.40;99.90;;;;;;5068910;27;20569;-80
2024/01/06 11:11:21;;;;;;;0.50;0.50;;;5.30;99.90;;;;;;5046187;28;20210;-79
2024/01/06 11:13:48;;;;;;;0.95;0.85;;;5.40;99.90;;;;;;5041614;28;20218;-78
2024/01/06 11:16:34;;;;;;;0.68;0.60;;;5.30;99.90;;;;;;5039834;28;20259;-78
2024/01/06 11:19:01;;;;;;;1.05;0.95;;;5.30;99.90;;;;;;5057246;27;20204;-76
2024/01/06 11:21:33;;;;;;;0.43;0.40;;;5.40;99.90;;;;;;5031618;27;20216;-78
2024/01/06 11:24:21;;;;;;;1.15;0.90;;;5.40;99.90;;;;;;5039698;28;20209;-76
2024/01/06 11:26:53;;;;;;;0.50;0.50;;;5.60;99.90;;;;;;5053308;27;20208;-76
2024/01/06 11:29:21;;;;;;;1.30;0.95;;;5.60;99.90;;;;;;5036135;28;20295;-77
2024/01/06 11:32:26;;;;;;;0.85;0.85;;;5.60;99.90;;;;;;5039276;28;20212;-78
2024/01/06 11:34:54;;;;;;;0.55;0.43;;;5.70;99.90;;;;;;5044912;27;20213;-77
2024/01/06 11:37:25;;;;;;;0.57;0.57;;;5.70;99.90;;;;;;5038577;27;20307;-78
2024/01/06 11:39:52;;;;;;;0.60;0.52;;;5.70;99.90;;;;;;5047050;27;20204;-77
2024/01/06 11:42:21;;;;;;;0.88;0.68;;;5.60;99.90;;;;;;5040070;27;20207;-78
2024/01/06 11:44:52;;;;;;;0.60;0.60;;;5.60;99.90;;;;;;5028683;27;20235;-77
2024/01/06 11:47:23;;;;;;;0.52;0.50;;;5.50;99.90;;;;;;5039499;27;20223;-77
2024/01/06 11:49:55;;;;;;;0.40;0.40;;;5.70;99.90;;;;;;5044878;27;20622;-77
2024/01/06 11:52:22;;;;;;;0.80;0.80;;;5.60;99.90;;;;;;5033703;27;20290;-77
2024/01/06 11:54:50;;;;;;;0.60;0.50;;;5.70;99.90;;;;;;5028949;27;20547;-77
2024/01/06 11:57:16;;;;;;;0.95;0.90;;;5.70;99.90;;;;;;5037558;27;20229;-77
2024/01/06 11:59:45;;;;;;;1.13;0.90;;;5.70;99.90;;;;;;5058891;27;20674;-77
2024/01/06 12:02:15;;;;;;;0.70;0.60;;;5.70;99.90;;;;;;5052967;27;20214;-77
2024/01/06 12:04:43;;;;;;;1.00;0.90;;;5.60;99.90;;;;;;5043945;27;20204;-77
2024/01/06 12:07:13;;;;;;;0.60;0.60;;;5.60;99.90;;;;;;5054190;27;20572;-77
2024/01/06 12:09:39;;;;;;;1.10;0.90;;;5.70;99.90;;;;;;5045303;27;20649;-78
2024/01/06 12:12:07;;;;;;;0.73;0.73;;;5.70;99.90;;;;;;5049617;27;20516;-74
2024/01/06 12:14:34;;;;;;;0.75;0.75;;;5.70;99.90;;;;;;5038150;28;20209;-76
2024/01/06 12:17:03;;;;;;;0.52;0.52;;;5.70;99.90;;;;;;5051394;27;20229;-76
2024/01/06 12:19:31;;;;;;;0.60;0.60;;;5.70;99.90;;;;;;5042442;27;20590;-75
2024/01/06 12:21:58;;;;;;;1.05;0.50;;;5.60;99.90;;;;;;5039725;27;20656;-76
2024/01/06 12:24:25;;;;;;;0.47;0.47;;;5.60;99.90;;;;;;5045149;27;20349;-76
2024/01/06 12:26:52;;;;;;;0.90;0.90;;;5.70;99.90;;;;;;5048636;28;20279;-76
2024/01/06 12:29:19;;;;;;;0.85;0.60;;;5.60;99.90;;;;;;5051279;27;20199;-77
2024/01/06 12:31:47;;;;;;;1.15;1.00;;;5.60;99.90;;;;;;5041548;27;20556;-77
2024/01/06 12:34:15;;;;;;;0.52;0.50;;;5.80;99.90;;;;;;5050802;27;20203;-77
2024/01/06 12:36:44;;;;;;;1.20;0.77;;;5.70;99.90;;;;;;5036595;28;20224;-77
2024/01/06 12:39:13;;;;;;;1.60;0.77;;;5.80;99.90;;;;;;5048809;28;20211;-76
2024/01/06 12:41:41;;;;;;;2.15;0.80;;;5.80;99.90;;;;;;5033799;28;20209;-77
2024/01/06 12:44:09;;;;;;;1.55;1.30;;;5.70;99.90;;;;;;5044294;27;20227;-77
2024/01/06 12:46:36;;;;;;;1.15;0.82;;;5.60;99.90;;;;;;5045332;28;20234;-77
2024/01/06 12:49:03;;;;;;;0.77;0.73;;;5.50;99.90;;;;;;5046498;27;20298;-77
2024/01/06 12:51:31;;;;;;;1.10;0.95;;;5.50;99.90;;;;;;5043368;28;20216;-76
2024/01/06 12:53:58;;;;;;;0.70;0.70;;;5.60;99.90;;;;;;5036157;28;20228;-77
2024/01/06 12:56:25;;;;;;;0.75;0.75;;;5.50;99.90;;;;;;5050987;28;20888;-77
2024/01/06 12:58:51;;;;;;;3.63;1.45;;;5.50;99.90;;;;;;5059740;28;20211;-77
2024/01/06 13:01:18;;;;;;;1.27;1.17;;;5.40;99.90;;;;;;5056787;27;20251;-77